createdAt,value
2023-11-25T00:02:14.691Z,97998.60
2023-11-25T00:04:48.903Z,98001.40
2023-11-25T00:07:24.462Z,98005.20
2023-11-25T00:10:00.001Z,98000.20
2023-11-25T00:12:34.488Z,98000.60
2023-11-25T00:15:09.943Z,97994.60
2023-11-25T00:17:44.335Z,98001.00
2023-11-25T00:20:20.921Z,98003.40
2023-11-25T00:22:54.986Z,97999.00
2023-11-25T00:25:33.976Z,98003.00
2023-11-25T00:28:11.826Z,98001.60
2023-11-25T00:30:47.385Z,98004.80
2023-11-25T00:33:21.426Z,98008.60
2023-11-25T00:35:55.750Z,98010.20
2023-11-25T00:38:29.796Z,98075.20
2023-11-25T00:41:03.530Z,98077.60
2023-11-25T00:43:38.056Z,98069.00
2023-11-25T00:46:14.725Z,98066.20
2023-11-25T00:48:53.676Z,98068.40
2023-11-25T00:51:29.891Z,98072.40
2023-11-25T00:54:04.309Z,98075.20
2023-11-25T00:56:40.878Z,98074.20
2023-11-25T00:59:14.890Z,98072.40
2023-11-25T01:01:55.338Z,98073.40
2023-11-25T01:04:29.496Z,98073.20
2023-11-25T01:07:03.590Z,98079.60
2023-11-25T01:09:37.785Z,98075.40
2023-11-25T01:12:13.258Z,98078.40
2023-11-25T01:14:48.175Z,98082.00
2023-11-25T01:17:27.664Z,98081.60
2023-11-25T01:21:23.741Z,98084.40
2023-11-25T01:23:57.670Z,98084.80
2023-11-25T01:26:31.479Z,98086.40
2023-11-25T01:33:23.008Z,98086.00
2023-11-25T01:35:57.282Z,98093.20
2023-11-25T01:38:31.106Z,98097.40
2023-11-25T01:41:05.941Z,98099.00
2023-11-25T01:43:40.444Z,98106.00
2023-11-25T01:46:24.612Z,98118.00
2023-11-25T01:48:58.788Z,98123.40
2023-11-25T01:51:39.845Z,98132.80
2023-11-25T01:54:45.689Z,98136.40
2023-11-25T01:57:35.391Z,98143.00
2023-11-25T02:00:30.465Z,98148.00
2023-11-25T02:03:05.572Z,98146.60
2023-11-25T02:05:40.645Z,98153.80
2023-11-25T02:08:15.329Z,98156.20
2023-11-25T02:10:49.441Z,98156.60
2023-11-25T02:13:25.841Z,98156.40
2023-11-25T02:16:03.849Z,98164.20
2023-11-25T02:18:38.203Z,98166.80
2023-11-25T02:21:12.473Z,98165.40
2023-11-25T02:23:46.349Z,98174.40
2023-11-25T02:26:22.189Z,98181.20
2023-11-25T02:28:56.262Z,98191.40
2023-11-25T02:31:30.277Z,98199.60
2023-11-25T02:34:04.185Z,98197.00
2023-11-25T02:36:39.660Z,98198.80
2023-11-25T02:39:16.023Z,98198.40
2023-11-25T02:41:52.838Z,98206.40
2023-11-25T02:44:28.604Z,98211.80
2023-11-25T02:47:02.913Z,98222.00
2023-11-25T02:49:37.150Z,98226.00
2023-11-25T02:52:11.137Z,98235.80
2023-11-25T02:54:45.810Z,98241.60
2023-11-25T02:57:20.672Z,98251.80
2023-11-25T02:59:56.397Z,98253.60
2023-11-25T03:02:30.455Z,98260.60
2023-11-25T03:05:05.869Z,98258.60
2023-11-25T03:07:39.959Z,98263.20
2023-11-25T03:10:18.198Z,98262.20
2023-11-25T03:12:52.540Z,98264.00
2023-11-25T03:15:26.292Z,98261.60
2023-11-25T03:18:01.314Z,98267.40
2023-11-25T03:20:35.163Z,98270.60
2023-11-25T03:23:09.245Z,98279.60
2023-11-25T03:25:44.523Z,98276.40
2023-11-25T03:28:18.250Z,98289.40
2023-11-25T03:30:51.944Z,98297.60
2023-11-25T03:33:26.740Z,98297.20
2023-11-25T03:36:00.742Z,98304.40
2023-11-25T03:38:35.050Z,98304.20
2023-11-25T03:41:10.310Z,98307.20
2023-11-25T03:43:44.678Z,98316.80
2023-11-25T03:46:18.395Z,98324.60
2023-11-25T03:48:52.290Z,98334.20
2023-11-25T03:51:27.120Z,98333.20
2023-11-25T03:54:01.012Z,98337.40
2023-11-25T03:56:34.709Z,98340.80
2023-11-25T03:59:09.593Z,98338.20
2023-11-25T04:01:44.762Z,98340.60
2023-11-25T04:04:19.046Z,98347.20
2023-11-25T04:06:53.700Z,98353.40
2023-11-25T04:09:27.447Z,98352.80
2023-11-25T04:12:01.546Z,98352.40
2023-11-25T04:14:35.701Z,98358.40
2023-11-25T04:17:12.939Z,98357.20
2023-11-25T04:19:47.768Z,98359.60
2023-11-25T04:22:21.557Z,98357.60
2023-11-25T04:24:55.237Z,98363.00
2023-11-25T04:27:31.309Z,98365.80
2023-11-25T04:30:06.806Z,98364.20
2023-11-25T04:32:41.476Z,98360.80
2023-11-25T04:35:16.378Z,98364.20
2023-11-25T04:37:51.395Z,98368.40
2023-11-25T04:40:25.707Z,98373.20
2023-11-25T04:42:59.986Z,98381.40
2023-11-25T04:45:33.648Z,98382.80
2023-11-25T04:48:09.961Z,98379.00
2023-11-25T04:50:45.763Z,98386.20
2023-11-25T04:53:20.671Z,98388.80
2023-11-25T04:55:54.951Z,98397.80
2023-11-25T04:58:28.973Z,98403.20
2023-11-25T05:01:03.761Z,98399.40
2023-11-25T05:03:37.521Z,98409.20
2023-11-25T05:06:15.135Z,98403.60
2023-11-25T05:08:48.832Z,98403.20
2023-11-25T05:11:22.679Z,98407.60
2023-11-25T05:13:56.504Z,98411.20
2023-11-25T05:16:31.014Z,98413.80
2023-11-25T05:19:05.267Z,98417.20
2023-11-25T05:21:40.895Z,98426.40
2023-11-25T05:24:14.904Z,98432.80
2023-11-25T05:26:49.038Z,98433.80
2023-11-25T05:29:22.937Z,98435.60
2023-11-25T05:31:56.766Z,98441.80
2023-11-25T05:34:30.770Z,98449.40
2023-11-25T05:37:05.220Z,98452.40
2023-11-25T05:39:42.324Z,98454.60
2023-11-25T05:42:20.081Z,98453.00
2023-11-25T05:44:53.764Z,98452.40
2023-11-25T05:47:30.839Z,98461.40
2023-11-25T05:50:05.238Z,98465.00
2023-11-25T05:52:39.922Z,98469.40
2023-11-25T05:55:16.622Z,98468.60
2023-11-25T05:57:53.950Z,98471.20
2023-11-25T06:00:31.104Z,98473.80
2023-11-25T06:03:05.865Z,98478.80
2023-11-25T06:05:40.380Z,98480.40
2023-11-25T06:08:15.097Z,98486.80
2023-11-25T06:10:50.579Z,98493.00
2023-11-25T06:13:24.595Z,98486.80
2023-11-25T06:16:00.339Z,98482.80
2023-11-25T06:18:35.349Z,98487.60
2023-11-25T06:21:12.147Z,98495.00
2023-11-25T06:23:46.080Z,98501.40
2023-11-25T06:26:20.725Z,98509.40
2023-11-25T06:28:54.502Z,98517.00
2023-11-25T06:31:28.238Z,98520.00
2023-11-25T06:34:02.262Z,98522.20
2023-11-25T06:36:36.429Z,98527.00
2023-11-25T06:39:12.590Z,98536.60
2023-11-25T06:41:50.604Z,98540.40
2023-11-25T06:44:25.041Z,98548.80
2023-11-25T06:46:59.920Z,98559.00
2023-11-25T06:49:33.835Z,98562.00
2023-11-25T06:52:08.550Z,98561.80
2023-11-25T06:54:44.771Z,98580.80
2023-11-25T06:57:19.328Z,98582.80
2023-11-25T06:59:54.833Z,98583.40
2023-11-25T07:02:34.472Z,98600.40
2023-11-25T07:05:11.092Z,98601.60
2023-11-25T07:07:47.442Z,98597.40
2023-11-25T07:10:22.551Z,98598.40
2023-11-25T07:12:56.467Z,98601.40
2023-11-25T07:15:30.808Z,98601.80
2023-11-25T07:18:08.176Z,98605.20
2023-11-25T07:20:43.851Z,98608.20
2023-11-25T07:23:20.928Z,98621.80
2023-11-25T07:25:56.878Z,98619.60
2023-11-25T07:28:30.761Z,98625.20
2023-11-25T07:31:11.195Z,98634.00
2023-11-25T07:33:44.996Z,98631.20
2023-11-25T07:36:22.804Z,98635.80
2023-11-25T07:38:56.399Z,98642.40
2023-11-25T07:41:31.011Z,98641.20
2023-11-25T07:44:05.160Z,98644.20
2023-11-25T07:46:38.995Z,98652.00
2023-11-25T07:49:12.824Z,98650.40
2023-11-25T07:51:47.012Z,98652.20
2023-11-25T07:54:21.824Z,98659.00
2023-11-25T07:56:55.876Z,98661.40
2023-11-25T07:59:31.011Z,98659.20
2023-11-25T08:02:08.530Z,98667.80
2023-11-25T08:04:43.469Z,98672.20
2023-11-25T08:07:17.800Z,98677.80
2023-11-25T08:10:06.549Z,98679.20
2023-11-25T08:12:41.426Z,98673.00
2023-11-25T08:15:16.716Z,98673.40
2023-11-25T08:17:51.075Z,98682.00
2023-11-25T08:20:26.028Z,98680.40
2023-11-25T08:22:59.837Z,98684.20
2023-11-25T08:25:34.393Z,98681.80
2023-11-25T08:28:08.584Z,98682.20
2023-11-25T08:30:42.440Z,98689.60
2023-11-25T08:33:20.209Z,98686.40
2023-11-25T08:35:54.215Z,98683.60
2023-11-25T08:38:27.934Z,98687.60
2023-11-25T08:41:02.831Z,98694.20
2023-11-25T08:43:39.831Z,98689.60
2023-11-25T08:46:13.827Z,98689.20
2023-11-25T08:48:47.824Z,98686.80
2023-11-25T08:51:21.868Z,98676.60
2023-11-25T08:53:55.527Z,98673.80
2023-11-25T08:56:36.350Z,98680.00
2023-11-25T08:59:11.846Z,98687.80
2023-11-25T09:01:47.885Z,98683.20
2023-11-25T09:04:21.998Z,98690.60
2023-11-25T09:06:58.553Z,98690.00
2023-11-25T09:09:32.373Z,98696.20
2023-11-25T09:12:09.916Z,98698.80
2023-11-25T09:14:44.398Z,98699.60
2023-11-25T09:17:18.628Z,98699.40
2023-11-25T09:19:53.889Z,98703.40
2023-11-25T09:22:28.061Z,98707.20
2023-11-25T09:25:25.922Z,98698.40
2023-11-25T09:32:19.493Z,98694.20
2023-11-25T09:43:32.349Z,98692.60
2023-11-25T09:46:09.664Z,98688.00
2023-11-25T09:48:45.184Z,98690.00
2023-11-25T09:51:28.409Z,98692.20
2023-11-25T09:54:09.363Z,98685.60
2023-11-25T09:56:45.342Z,98687.80
2023-11-25T10:03:51.963Z,98689.20
2023-11-25T10:10:47.169Z,98696.40
2023-11-25T10:14:34.499Z,98697.40
2023-11-25T10:17:56.655Z,98696.40
2023-11-25T10:20:52.018Z,98690.00
2023-11-25T10:23:37.051Z,98694.20
2023-11-25T10:26:18.427Z,98698.40
2023-11-25T10:29:30.307Z,98702.60
2023-11-25T10:32:46.903Z,98706.80
2023-11-25T11:15:21.229Z,98714.20
2023-11-25T11:18:46.487Z,98728.60
2023-11-25T11:21:55.768Z,98729.00
2023-11-25T11:25:09.020Z,98736.20
2023-11-25T11:28:19.815Z,98732.20
2023-11-25T11:31:52.147Z,98725.80
2023-11-25T11:34:44.132Z,98734.40
2023-11-25T11:38:36.908Z,98731.60
2023-11-25T11:45:17.247Z,98742.60
2023-11-25T12:00:38.358Z,98716.60
2023-11-25T12:06:23.225Z,98725.20
2023-11-25T12:41:53.706Z,98719.40
2023-11-25T12:45:06.088Z,98719.00
2023-11-25T12:48:15.811Z,98715.40
2023-11-25T12:51:08.185Z,98713.20
2023-11-25T12:54:12.757Z,98718.40
2023-11-25T12:56:59.334Z,98727.40
2023-11-25T12:59:33.313Z,98720.80
2023-11-25T13:02:09.969Z,98716.80
2023-11-25T13:04:50.573Z,98724.60
2023-11-25T13:07:35.446Z,98727.00
2023-11-25T13:10:08.209Z,98729.40
2023-11-25T13:12:39.379Z,98729.40
2023-11-25T13:15:10.308Z,98733.80
2023-11-25T13:17:41.421Z,98728.60
2023-11-25T13:20:13.098Z,98724.60
2023-11-25T13:22:42.565Z,98728.80
2023-11-25T13:25:13.046Z,98727.80
2023-11-25T13:27:42.780Z,98725.40
2023-11-25T13:30:13.186Z,98731.20
2023-11-25T13:32:43.528Z,98724.40
2023-11-25T13:35:13.070Z,98724.60
2023-11-25T13:37:42.623Z,98727.00
2023-11-25T13:40:20.639Z,98728.20
2023-11-25T13:42:50.638Z,98730.60
2023-11-25T14:07:11.856Z,98742.00
2023-11-25T14:10:30.976Z,98740.00
2023-11-25T14:13:37.521Z,98732.20
2023-11-25T14:40:19.129Z,98731.60
2023-11-25T14:43:35.826Z,98731.20
2023-11-25T14:46:16.296Z,98737.60
2023-11-25T14:48:50.077Z,98746.60
2023-11-25T14:51:23.862Z,98748.00
2023-11-25T14:53:57.445Z,98742.40
2023-11-25T14:56:32.036Z,98742.40
2023-11-25T14:59:07.077Z,98746.00
2023-11-25T15:01:40.907Z,98745.80
2023-11-25T15:04:16.331Z,98746.60
2023-11-25T15:06:50.738Z,98740.80
2023-11-25T15:09:24.665Z,98744.00
2023-11-25T15:12:00.523Z,98741.00
2023-11-25T15:14:35.371Z,98737.80
2023-11-25T15:17:11.970Z,98741.00
2023-11-25T15:19:47.938Z,98740.20
2023-11-25T15:22:21.965Z,98741.00
2023-11-25T15:24:56.036Z,98742.60
2023-11-25T15:27:32.019Z,98740.00
2023-11-25T15:30:10.535Z,98745.40
2023-11-25T15:32:46.031Z,98745.40
2023-11-25T15:35:20.146Z,98747.40
2023-11-25T15:37:54.051Z,98747.80
2023-11-25T15:40:27.923Z,98750.60
2023-11-25T15:43:01.783Z,98747.00
2023-11-25T15:45:35.594Z,98753.40
2023-11-25T15:48:10.531Z,98754.20
2023-11-25T15:50:44.468Z,98751.80
2023-11-25T16:15:00.181Z,98755.80
2023-11-25T16:17:36.892Z,98762.60
2023-11-25T16:20:20.812Z,98765.60
2023-11-25T16:22:58.401Z,98765.00
2023-11-25T16:25:33.199Z,98763.80
2023-11-25T16:28:12.823Z,98761.00
2023-11-25T16:31:37.107Z,98766.00
2023-11-25T16:41:19.452Z,98767.60
2023-11-25T17:01:50.448Z,98765.00
2023-11-25T17:04:25.266Z,98773.80
2023-11-25T17:07:00.933Z,98773.40
2023-11-25T17:09:34.981Z,98772.20
2023-11-25T17:12:12.531Z,98778.60
2023-11-25T17:14:50.371Z,98780.20
2023-11-25T17:17:32.999Z,98780.40
2023-11-25T17:20:12.023Z,98780.20
2023-11-25T17:22:46.393Z,98782.20
2023-11-25T17:25:20.942Z,98781.40
2023-11-25T17:27:54.978Z,98782.40
2023-11-25T17:30:28.888Z,98787.80
2023-11-25T17:33:03.788Z,98793.60
2023-11-25T17:35:37.964Z,98795.20
2023-11-25T17:38:14.388Z,98797.40
2023-11-25T17:40:49.709Z,98797.40
2023-11-25T17:43:23.796Z,98792.20
2023-11-25T17:46:00.117Z,98800.20
2023-11-25T17:48:34.287Z,98800.40
2023-11-25T17:51:08.689Z,98801.20
2023-11-25T17:53:42.874Z,98802.00
2023-11-25T17:56:17.168Z,98798.60
2023-11-25T17:58:51.081Z,98802.80
2023-11-25T18:01:24.954Z,98807.60
2023-11-25T18:04:00.205Z,98802.00
2023-11-25T18:06:34.894Z,98807.00
2023-11-25T18:09:11.286Z,98803.00
2023-11-25T18:11:45.999Z,98802.40
2023-11-25T18:14:20.103Z,98804.80
2023-11-25T18:16:59.677Z,98804.80
2023-11-25T18:19:33.755Z,98799.20
2023-11-25T18:22:07.996Z,98801.20
2023-11-25T18:24:49.203Z,98807.40
2023-11-25T18:27:23.157Z,98801.20
2023-11-25T18:29:57.294Z,98800.60
2023-11-25T18:33:04.395Z,98804.60
2023-11-25T18:36:22.549Z,98805.00
2023-11-25T18:39:12.830Z,98803.80
2023-11-25T18:42:43.550Z,98807.60
2023-11-25T18:45:40.691Z,98806.40
2023-11-25T18:49:06.103Z,98809.20
2023-11-25T19:15:12.900Z,98812.40
2023-11-25T19:17:46.850Z,98809.60
2023-11-25T19:20:20.876Z,98814.60
2023-11-25T19:22:54.677Z,98817.40
2023-11-25T19:25:28.910Z,98818.20
2023-11-25T19:28:02.855Z,98826.20
2023-11-25T19:30:36.805Z,98822.80
2023-11-25T19:33:11.416Z,98818.40
2023-11-25T19:35:47.676Z,98824.20
2023-11-25T19:38:22.747Z,98824.60
2023-11-25T19:40:56.734Z,98828.80
2023-11-25T19:43:30.906Z,98825.40
2023-11-25T19:46:05.397Z,98838.40
2023-11-25T19:48:40.160Z,98842.00
2023-11-25T19:51:17.016Z,98843.00
2023-11-25T19:53:54.587Z,98845.20
2023-11-25T19:56:36.863Z,98847.20
2023-11-25T19:59:40.915Z,98851.60
2023-11-25T20:02:31.888Z,98848.40
2023-11-25T20:05:11.685Z,98851.40
2023-11-25T20:07:55.091Z,98852.40
2023-11-25T20:10:32.487Z,98860.80
2023-11-25T20:13:08.765Z,98861.00
2023-11-25T20:15:54.939Z,98864.20
2023-11-25T20:18:33.805Z,98868.20
2023-11-25T20:21:11.213Z,98875.20
2023-11-25T20:23:49.757Z,98880.80
2023-11-25T20:26:23.897Z,98882.80
2023-11-25T20:28:58.434Z,98880.60
2023-11-25T20:31:41.539Z,98874.20
2023-11-25T20:34:15.979Z,98877.00
2023-11-25T20:36:51.579Z,98874.40
2023-11-25T20:39:31.069Z,98877.80
2023-11-25T20:42:10.711Z,98876.80
2023-11-25T20:44:55.678Z,98881.40
2023-11-25T20:47:32.460Z,98883.00
2023-11-25T20:50:08.118Z,98889.80
2023-11-25T20:52:45.528Z,98880.20
2023-11-25T20:55:30.297Z,98881.60
2023-11-25T20:58:04.371Z,98885.00
2023-11-25T21:00:40.691Z,98885.00
2023-11-25T21:03:17.820Z,98889.60
2023-11-25T21:05:52.615Z,98887.80
2023-11-25T21:08:46.081Z,98891.20
2023-11-25T21:11:22.364Z,98893.00
2023-11-25T21:13:59.630Z,98899.40
2023-11-25T21:16:38.048Z,98898.80
2023-11-25T21:19:13.550Z,98899.60
2023-11-25T21:21:53.175Z,98903.80
2023-11-25T22:11:57.657Z,98923.60
2023-11-25T22:25:14.068Z,98932.00
2023-11-25T22:31:20.372Z,98932.40
2023-11-25T22:34:17.373Z,98937.80
2023-11-25T22:40:12.097Z,98947.60
2023-11-25T22:43:04.678Z,98947.00
2023-11-25T22:46:37.929Z,98946.40
2023-11-25T22:49:15.322Z,98954.40
2023-11-25T22:51:52.810Z,98953.40
2023-11-25T22:54:28.094Z,98952.60
2023-11-25T22:57:09.553Z,98957.80
2023-11-25T22:59:48.049Z,98958.60
2023-11-25T23:02:50.696Z,98963.20
2023-11-25T23:05:25.173Z,98964.80
2023-11-25T23:07:59.183Z,98961.80
2023-11-25T23:10:37.985Z,98959.00
2023-11-25T23:13:14.449Z,98961.20
2023-11-25T23:15:50.868Z,98963.40
2023-11-25T23:18:29.803Z,98969.60
2023-11-25T23:21:06.135Z,98970.80
2023-11-25T23:23:52.618Z,98974.60
2023-11-25T23:26:29.583Z,98974.20
2023-11-25T23:29:08.584Z,98974.20
2023-11-25T23:31:43.439Z,98976.60
2023-11-25T23:34:19.445Z,98980.20
2023-11-25T23:36:57.155Z,98984.60
2023-11-25T23:39:38.981Z,98984.80
2023-11-25T23:42:14.293Z,98988.00
2023-11-25T23:45:07.971Z,98987.60
2023-11-25T23:47:48.770Z,98994.00
2023-11-25T23:50:28.716Z,98998.60
2023-11-25T23:53:04.992Z,99001.00
2023-11-25T23:55:40.606Z,99006.20
2023-11-25T23:58:16.948Z,99006.40
